Blue Canyon, CA

10:19 PM PDT on March 26, 2017 (GMT -0700)
Blue Canyon-Nyack

Weather History for KBLU - March, 2013

Change the Weather History Date:

Wednesday, March 6, 2013

  Actual Average Record
Temperature  
Mean Temperature 30 °F -  
Max Temperature 33 °F 46 °F 66 °F (1979)
Min Temperature 28 °F 33 °F 9 °F (1956)
Degree Days  
Heating Degree Days 34    
Moisture  
Dew Point 28 °F    
Average Humidity 95    
Maximum Humidity 100    
Minimum Humidity 81    
Precipitation  
Precipitation 0.66 in - - ()
Sea Level Pressure  
Sea Level Pressure 29.93 in    
Wind  
Wind Speed 15 mph (South)    
Max Wind Speed 25 mph    
Max Gust Speed 41 mph    
Visibility 3 miles    
Events Fog , Snow    
Averages and records for this station are not official NWS values.
T = Trace of Precipitation, MM = Missing Value Source: NWS Daily Summary

Daily Weather History Graph

Daily Weather History Graph

Search for Another Location

Airport or City:

Trip Planner

Search our weather history database for the weather conditions in past years. The results will help you decide how hot, cold, wet, or windy it might be!

Date:

Astronomy

Mar. 06, 2013 Rise Set
Actual Time 6:27 AM PST 6:00 PM PST
Civil Twilight 6:00 AM PST 6:27 PM PST
Nautical Twilight 5:29 AM PST 6:58 PM PST
Astronomical Twilight 4:58 AM PST 7:29 PM PST
Moon 2:39 AM PST (3/6) 12:49 PM PST (3/6)
Length of Visible Light 12h 26m
Length of Day
11h 33m
Waning Crescent, 29% of the Moon is Illuminated
Mar 6
Waning Crescent
Mar 11
New
Mar 19
First Quarter
Mar 27
Full
Apr 2
Last Quarter

Hourly Weather History & Observations

Time (PST) Temp. Windchill Dew Point Humidity Pressure Visibility Wind Dir Wind Speed Gust Speed Precip Events Conditions
12:00 AM 33.8 °F 22.8 °F 30.2 °F 87% 29.80 in 9.0 mi SSE 18.4 mph 28.8 mph 0.00 in Snow Light Snow
12:18 AM 33.8 °F 22.5 °F 28.4 °F 81% 29.80 in 2.0 mi South 19.6 mph 39.1 mph 0.00 in Snow Light Snow
12:21 AM 33.8 °F 23.5 °F 28.4 °F 81% 29.80 in 1.8 mi South 16.1 mph 31.1 mph 0.00 in Snow Light Snow
12:24 AM 33.8 °F 21.9 °F 30.2 °F 87% 29.80 in 1.2 mi South 21.9 mph 32.2 mph 0.00 in Snow Light Snow
12:27 AM 33.8 °F 21.9 °F 30.2 °F 87% 29.80 in 0.8 mi South 21.9 mph 38.0 mph 0.00 in Snow Light Snow
12:35 AM 32.0 °F 18.6 °F 30.2 °F 93% 29.80 in 0.5 mi South 25.3 mph 38.0 mph 0.00 in Fog , Snow Snow
12:37 AM 32.0 °F 19.8 °F 30.2 °F 93% 29.80 in 0.2 mi South 20.7 mph 35.7 mph 0.00 in Fog , Snow Snow
12:52 AM 30.9 °F 19.1 °F 30.9 °F 100% 29.78 in 0.2 mi South 18.4 mph 32.2 mph 0.00 in Fog , Snow Heavy Snow
1:21 AM 30.2 °F 16.8 °F 30.2 °F 100% 29.80 in 0.5 mi SSE 23.0 mph 29.9 mph 0.04 in Fog , Snow Snow
1:52 AM 30.0 °F 16.9 °F 30.0 °F 100% 29.78 in 0.5 mi SSE 21.9 mph 29.9 mph 0.08 in Fog , Snow Snow
2:52 AM 30.0 °F 16.0 °F 30.0 °F 100% 29.76 in 0.5 mi South 25.3 mph 38.0 mph 0.01 in Fog , Snow Snow
3:52 AM 30.0 °F 16.9 °F 30.0 °F 100% 29.75 in 0.5 mi South 21.9 mph 38.0 mph 0.06 in Fog , Snow Snow
4:40 AM 30.2 °F 17.1 °F 30.2 °F 100% 29.76 in 0.2 mi South 21.9 mph 31.1 mph 0.02 in Fog , Snow Snow
4:48 AM 30.2 °F 16.8 °F 30.2 °F 100% 29.75 in 0.5 mi South 23.0 mph 31.1 mph 0.04 in Fog , Snow Snow
4:52 AM 30.9 °F 19.4 °F 30.0 °F 96% 29.75 in 0.2 mi South 17.3 mph 31.1 mph 0.05 in Fog , Snow Snow
5:05 AM 30.2 °F 20.8 °F 30.2 °F 100% 29.77 in 0.5 mi SSW 11.5 mph 31.1 mph 0.02 in Fog , Snow Snow
5:52 AM 28.9 °F 15.8 °F 28.0 °F 96% 29.80 in 0.5 mi South 20.7 mph 36.8 mph 0.09 in Fog , Snow Snow
6:52 AM 28.9 °F 16.9 °F 28.9 °F 100% 29.84 in 0.5 mi SSW 17.3 mph 29.9 mph 0.11 in Fog , Snow Snow
7:16 AM 28.4 °F 14.4 °F 28.4 °F 100% 29.83 in 0.2 mi SSW 23.0 mph 41.4 mph 0.02 in Fog , Snow Light Snow
7:52 AM 28.0 °F 14.3 °F 27.0 °F 96% 29.89 in 0.8 mi SSW 21.9 mph 35.7 mph 0.02 in Snow Light Snow
7:56 AM 28.4 °F 16.6 °F 26.6 °F 93% 29.86 in 1.5 mi SSW 16.1 mph 35.7 mph 0.00 in Snow Light Snow
8:02 AM 28.4 °F 15.1 °F 26.6 °F 93% 29.86 in 3.0 mi South 20.7 mph 32.2 mph 0.00 in   Overcast
8:15 AM 28.4 °F 15.8 °F 26.6 °F 93% 29.87 in 1.8 mi SSW 18.4 mph 39.1 mph 0.00 in Snow Light Snow
8:20 AM 28.4 °F 16.2 °F 26.6 °F 93% 29.88 in 0.8 mi SSW 17.3 mph 39.1 mph 0.00 in Snow Light Snow
8:36 AM 28.4 °F 15.8 °F 26.6 °F 93% 29.89 in 2.0 mi SSW 18.4 mph 28.8 mph 0.03 in Snow Light Snow
8:49 AM 28.4 °F 15.4 °F 26.6 °F 93% 29.90 in 1.5 mi SSW 19.6 mph 28.8 mph 0.03 in Snow Light Snow
8:52 AM 28.0 °F 18.1 °F 27.0 °F 96% 29.93 in 2.5 mi SSW 11.5 mph 28.8 mph 0.05 in Snow Light Snow
8:57 AM 28.4 °F 18.5 °F 26.6 °F 93% 29.90 in 1.2 mi SW 11.5 mph 28.8 mph 0.01 in Snow Light Snow
9:07 AM 28.4 °F 14.7 °F 26.6 °F 93% 29.91 in 2.0 mi South 21.9 mph 28.8 mph 0.01 in Snow Light Snow
9:14 AM 28.4 °F 16.2 °F 26.6 °F 93% 29.92 in 8.0 mi South 17.3 mph 31.1 mph 0.01 in   Overcast
9:29 AM 28.4 °F 17.5 °F 26.6 °F 93% 29.92 in 0.8 mi South 13.8 mph 27.6 mph 0.01 in Snow Light Snow
9:39 AM 28.4 °F 17.0 °F 28.4 °F 100% 29.92 in 0.2 mi SSW 15.0 mph 23.0 mph 0.01 in Fog , Snow Light Snow
9:50 AM 28.4 °F 17.0 °F 26.6 °F 93% 29.92 in 0.5 mi South 15.0 mph 21.9 mph 0.02 in Fog , Snow Light Snow
9:52 AM 28.0 °F 16.1 °F 27.0 °F 96% 29.96 in 0.5 mi South 16.1 mph 24.2 mph 0.03 in Fog , Snow Snow
10:03 AM 28.4 °F 17.0 °F 26.6 °F 93% 29.93 in 1.5 mi SSW 15.0 mph 27.6 mph 0.00 in Snow Light Snow
10:23 AM 28.4 °F 15.1 °F 26.6 °F 93% 29.93 in 0.8 mi South 20.7 mph 26.5 mph 0.02 in Snow Light Snow
10:35 AM 28.4 °F 18.5 °F 26.6 °F 93% 29.94 in 1.8 mi SSW 11.5 mph 31.1 mph 0.02 in   Overcast
10:37 AM 28.4 °F 18.0 °F 26.6 °F 93% 29.93 in 5.0 mi SSW 12.7 mph 31.1 mph 0.02 in   Overcast
10:52 AM 28.0 °F 17.0 °F 27.0 °F 96% 29.97 in 2.0 mi SSW 13.8 mph 26.5 mph 0.02 in Snow Light Snow
11:03 AM 28.4 °F 18.5 °F 26.6 °F 93% 29.94 in 0.8 mi South 11.5 mph 24.2 mph 0.00 in Snow Light Snow
11:08 AM 28.4 °F 17.5 °F 26.6 °F 93% 29.95 in 0.2 mi South 13.8 mph 24.2 mph 0.01 in Fog , Snow Snow
11:25 AM 28.4 °F 17.5 °F 26.6 °F 93% 29.96 in 0.5 mi SSW 13.8 mph 27.6 mph 0.02 in Fog , Snow Light Snow
11:34 AM 28.4 °F 16.6 °F 28.4 °F 100% 29.96 in 2.0 mi South 16.1 mph 24.2 mph 0.02 in   Overcast
11:41 AM 28.4 °F 18.5 °F 28.4 °F 100% 29.96 in 5.0 mi SSW 11.5 mph 28.8 mph 0.03 in   Overcast
11:52 AM 28.9 °F 18.2 °F 27.0 °F 92% 30.00 in 10.0 mi South 13.8 mph 23.0 mph 0.03 in   Overcast
12:03 PM 28.4 °F 18.0 °F 26.6 °F 93% 29.97 in 1.5 mi South 12.7 mph 21.9 mph 0.00 in Snow Light Snow
12:08 PM 28.4 °F 16.6 °F 26.6 °F 93% 29.97 in 0.8 mi South 16.1 mph 21.9 mph 0.00 in Snow Light Snow
12:23 PM 28.4 °F 18.5 °F 28.4 °F 100% 29.97 in 1.5 mi SSW 11.5 mph 19.6 mph 0.03 in Snow Light Snow
12:25 PM 28.4 °F 18.5 °F 28.4 °F 100% 29.97 in 3.0 mi South 11.5 mph 18.4 mph 0.03 in Snow Light Snow
12:31 PM 28.4 °F 20.4 °F 28.4 °F 100% 29.97 in 1.5 mi SSW 8.1 mph 23.0 mph 0.03 in Snow Light Snow
12:35 PM 28.4 °F 19.7 °F 28.4 °F 100% 29.97 in 0.8 mi South 9.2 mph 23.0 mph 0.04 in Snow Light Snow
12:52 PM 28.0 °F 19.3 °F 27.0 °F 96% 30.02 in 0.5 mi SSW 9.2 mph 28.8 mph 0.05 in Fog , Snow Snow
1:06 PM 28.4 °F 17.0 °F 26.6 °F 93% 29.97 in 1.8 mi SSW 15.0 mph 23.0 mph 0.02 in Snow Light Snow
1:09 PM 28.4 °F 17.5 °F 26.6 °F 93% 29.98 in 3.0 mi SSW 13.8 mph 21.9 mph 0.02 in Snow Light Snow
1:25 PM 28.4 °F 19.7 °F 28.4 °F 100% 29.98 in 1.0 mi South 9.2 mph - 0.03 in   Overcast
1:30 PM 28.4 °F 18.5 °F 28.4 °F 100% 29.98 in 0.2 mi South 11.5 mph - 0.03 in Fog Light Freezing Fog
1:38 PM 28.4 °F 18.0 °F 28.4 °F 100% 29.98 in 1.2 mi South 12.7 mph 19.6 mph 0.03 in Snow Light Snow
1:40 PM 28.4 °F 18.0 °F 28.4 °F 100% 29.98 in 3.0 mi SW 12.7 mph 19.6 mph 0.03 in Snow Light Snow
1:49 PM 30.2 °F 21.3 °F 26.6 °F 86% 29.98 in 1.5 mi South 10.4 mph 20.7 mph 0.04 in Snow Light Snow
1:52 PM 28.9 °F 17.7 °F 28.0 °F 96% 30.03 in 0.8 mi SSE 15.0 mph 19.6 mph 0.05 in Snow Light Snow
2:01 PM 28.4 °F 19.1 °F 28.4 °F 100% 29.97 in 1.5 mi South 10.4 mph 28.8 mph 0.00 in Snow Light Snow
2:03 PM 28.4 °F 19.1 °F 28.4 °F 100% 29.97 in 3.0 mi South 10.4 mph 28.8 mph 0.00 in Snow Light Snow
2:18 PM 30.2 °F 21.3 °F 28.4 °F 93% 29.97 in 10.0 mi South 10.4 mph - 0.00 in   Overcast
2:52 PM 30.0 °F 21.1 °F 28.0 °F 92% 30.03 in 10.0 mi South 10.4 mph 21.9 mph 0.00 in   Overcast
3:09 PM 28.4 °F 17.5 °F 26.6 °F 93% 29.98 in 1.8 mi SSE 13.8 mph 21.9 mph 0.00 in Snow Light Snow
3:12 PM 28.4 °F 18.0 °F 26.6 °F 93% 29.98 in 0.8 mi SSE 12.7 mph 21.9 mph 0.00 in Snow Light Snow
3:37 PM 28.4 °F 18.5 °F 28.4 °F 100% 29.98 in 1.8 mi SSE 11.5 mph 21.9 mph 0.01 in Snow Light Snow
3:41 PM 30.2 °F 20.8 °F 28.4 °F 93% 29.98 in 3.0 mi SSE 11.5 mph 21.9 mph 0.01 in Snow Light Snow
3:52 PM 30.0 °F 21.1 °F 27.0 °F 88% 30.03 in 9.0 mi SSE 10.4 mph 19.6 mph 0.01 in   Overcast
4:52 PM 30.0 °F 21.1 °F 28.0 °F 92% 30.01 in 7.0 mi South 10.4 mph - 0.00 in Snow Light Snow
5:06 PM 30.2 °F 19.8 °F 28.4 °F 93% 29.97 in 9.0 mi SSE 13.8 mph - 0.00 in   Overcast
5:14 PM 30.2 °F 21.3 °F 28.4 °F 93% 29.97 in 1.8 mi SSE 10.4 mph - 0.00 in   Overcast
5:17 PM 30.2 °F 21.3 °F 28.4 °F 93% 29.96 in 0.8 mi SSE 10.4 mph - 0.00 in   Overcast
5:33 PM 30.2 °F 21.3 °F 28.4 °F 93% 29.96 in 1.8 mi South 10.4 mph - 0.00 in   Overcast
5:44 PM 28.4 °F 19.7 °F 28.4 °F 100% 29.96 in 1.2 mi South 9.2 mph - 0.00 in   Overcast
5:46 PM 28.4 °F 18.5 °F 28.4 °F 100% 29.96 in 2.5 mi South 11.5 mph - 0.00 in   Overcast
5:52 PM 30.0 °F 22.4 °F 28.9 °F 96% 30.02 in 9.0 mi South 8.1 mph - 0.00 in   Overcast
6:30 PM 30.2 °F 21.3 °F 28.4 °F 93% 29.97 in 1.5 mi South 10.4 mph - N/A   Overcast
6:40 PM 30.2 °F 22.6 °F 28.4 °F 93% 29.97 in 1.0 mi South 8.1 mph - N/A   Overcast
6:52 PM 28.9 °F 21.1 °F 28.9 °F 100% 30.03 in 2.0 mi SSE 8.1 mph - N/A   Overcast
6:59 PM 28.4 °F 19.7 °F 28.4 °F 100% 29.96 in 5.0 mi SSE 9.2 mph - N/A   Overcast
7:06 PM 30.2 °F 21.9 °F 28.4 °F 93% 29.96 in 1.8 mi South 9.2 mph - N/A   Overcast
7:17 PM 28.4 °F 20.4 °F 28.4 °F 100% 29.96 in 3.0 mi South 8.1 mph - N/A   Overcast
7:52 PM 28.9 °F 23.9 °F 28.9 °F 100% 30.02 in 5.0 mi South 4.6 mph - N/A   Overcast
8:45 PM 28.4 °F 23.3 °F 28.4 °F 100% 29.95 in 7.0 mi South 4.6 mph - 0.00 in   Overcast
8:52 PM 28.9 °F 25.2 °F 28.0 °F 96% 30.01 in 3.0 mi South 3.5 mph - 0.00 in   Overcast
8:56 PM 28.4 °F - 28.4 °F 100% 29.95 in 1.8 mi Calm Calm - N/A   Overcast
9:04 PM 28.4 °F 24.6 °F 26.6 °F 93% 29.95 in 1.0 mi SSE 3.5 mph - N/A   Overcast
9:08 PM 28.4 °F - 26.6 °F 93% 29.95 in 2.0 mi Calm Calm - N/A   Overcast
9:16 PM 28.4 °F - 26.6 °F 93% 29.95 in 4.0 mi Calm Calm - N/A   Overcast
9:33 PM 28.4 °F - 26.6 °F 93% 29.95 in 1.8 mi Calm Calm - N/A   Overcast
9:48 PM 28.4 °F - 28.4 °F 100% 29.95 in 1.2 mi Calm Calm - N/A   Overcast
9:52 PM 28.9 °F - 28.0 °F 96% 30.01 in 1.5 mi Calm Calm - N/A   Overcast
9:58 PM 28.4 °F - 28.4 °F 100% 29.95 in 3.0 mi Calm Calm - N/A   Overcast
10:14 PM 28.4 °F - 28.4 °F 100% 29.95 in 9.0 mi Calm Calm - N/A   Overcast
10:38 PM 28.4 °F - 28.4 °F 100% 29.94 in 10.0 mi Calm Calm - N/A   Overcast
10:52 PM 28.9 °F - 28.0 °F 96% 30.01 in 10.0 mi Calm Calm - N/A   Overcast
11:13 PM 28.4 °F - 26.6 °F 93% 29.93 in 10.0 mi Calm Calm - N/A   Overcast
11:52 PM 28.9 °F 25.2 °F 27.0 °F 92% 29.99 in 10.0 mi Variable 3.5 mph - 0.00 in   Overcast